createdAt,value
2019-03-29T00:00:46.022Z,91.20
2019-03-29T00:03:12.525Z,91.10
2019-03-29T00:05:46.015Z,90.70
2019-03-29T00:08:15.510Z,90.80
2019-03-29T00:10:41.795Z,90.50
2019-03-29T00:13:14.354Z,90.80
2019-03-29T00:15:42.476Z,92.10
2019-03-29T00:18:10.003Z,93.10
2019-03-29T00:20:37.616Z,93.00
2019-03-29T00:23:13.848Z,92.50
2019-03-29T00:25:46.335Z,91.60
2019-03-29T00:28:23.012Z,92.40
2019-03-29T00:30:52.372Z,93.20
2019-03-29T00:33:32.419Z,93.20
2019-03-29T00:35:59.889Z,93.10
2019-03-29T00:38:29.393Z,92.10
2019-03-29T00:44:24.529Z,91.50
2019-03-29T00:46:53.914Z,91.00
2019-03-29T00:49:23.385Z,90.90
2019-03-29T00:51:50.941Z,90.70
2019-03-29T00:54:35.911Z,90.70
2019-03-29T00:57:08.547Z,91.50
2019-03-29T00:59:43.945Z,91.40
2019-03-29T01:02:19.406Z,91.80
2019-03-29T01:04:55.011Z,92.80
2019-03-29T01:07:22.688Z,91.90
2019-03-29T01:09:57.324Z,91.40
2019-03-29T01:12:26.763Z,91.70
2019-03-29T01:14:59.072Z,91.70
2019-03-29T01:17:45.760Z,91.80
2019-03-29T01:20:15.398Z,92.60
2019-03-29T01:22:53.979Z,92.80
2019-03-29T01:25:26.292Z,92.50
2019-03-29T01:27:52.726Z,92.20
2019-03-29T01:30:22.339Z,91.90
2019-03-29T01:33:08.734Z,91.40
2019-03-29T01:35:37.122Z,91.00
2019-03-29T01:38:06.612Z,90.90
2019-03-29T01:40:45.139Z,91.00
2019-03-29T01:43:14.713Z,91.70
2019-03-29T01:45:47.224Z,92.10
2019-03-29T01:48:24.347Z,92.30
2019-03-29T01:50:56.675Z,92.90
2019-03-29T01:53:41.478Z,94.00
2019-03-29T01:56:08.836Z,94.80
2019-03-29T01:58:41.307Z,94.60
2019-03-29T02:01:18.183Z,94.50
2019-03-29T02:03:47.907Z,94.00
2019-03-29T02:06:20.135Z,93.30
2019-03-29T02:08:46.619Z,92.90
2019-03-29T02:11:18.742Z,92.40
2019-03-29T02:13:56.165Z,92.10
2019-03-29T02:16:25.676Z,91.70
2019-03-29T02:18:54.057Z,91.60
2019-03-29T02:21:22.916Z,91.80
2019-03-29T02:24:30.777Z,91.90
2019-03-29T02:27:04.028Z,92.50
2019-03-29T02:29:41.259Z,92.90
2019-03-29T02:32:15.042Z,92.40
2019-03-29T02:35:11.466Z,92.10
2019-03-29T02:37:44.072Z,91.80
2019-03-29T02:40:51.450Z,91.90
2019-03-29T02:44:04.573Z,91.80
2019-03-29T02:46:33.905Z,92.80
2019-03-29T02:49:06.395Z,92.90
2019-03-29T02:51:38.940Z,92.50
2019-03-29T02:54:23.396Z,92.40
2019-03-29T02:56:49.727Z,92.50
2019-03-29T02:59:30.475Z,92.70
2019-03-29T03:01:57.033Z,93.20
2019-03-29T03:04:26.454Z,93.90
2019-03-29T03:06:55.962Z,93.90
2019-03-29T03:09:22.450Z,93.50
2019-03-29T03:11:51.806Z,92.60
2019-03-29T03:14:33.530Z,92.10
2019-03-29T03:17:03.073Z,92.20
2019-03-29T03:19:35.752Z,91.80
2019-03-29T03:22:29.165Z,91.40
2019-03-29T03:25:01.679Z,91.40
2019-03-29T03:27:35.588Z,91.50
2019-03-29T03:30:09.540Z,91.60
2019-03-29T03:32:37.909Z,91.70
2019-03-29T03:35:07.478Z,92.40
2019-03-29T03:37:41.749Z,92.30
2019-03-29T03:40:11.186Z,92.40
2019-03-29T03:42:39.668Z,92.40
2019-03-29T03:45:13.953Z,92.20
2019-03-29T03:48:06.124Z,91.90
2019-03-29T03:50:56.391Z,91.90
2019-03-29T03:53:25.878Z,91.80
2019-03-29T03:55:55.312Z,91.90
2019-03-29T03:58:24.869Z,92.40
2019-03-29T04:00:54.580Z,92.80
2019-03-29T04:03:24.108Z,93.40
2019-03-29T04:06:02.526Z,93.10
2019-03-29T04:08:31.945Z,92.80
2019-03-29T04:11:01.404Z,92.50
2019-03-29T04:13:44.780Z,92.20
2019-03-29T04:16:11.048Z,92.10
2019-03-29T04:18:52.447Z,92.30
2019-03-29T04:21:23.149Z,92.40
2019-03-29T04:24:19.114Z,92.30
2019-03-29T04:26:58.409Z,92.60
2019-03-29T04:29:25.259Z,92.50
2019-03-29T04:31:58.450Z,92.60
2019-03-29T04:34:36.359Z,92.70
2019-03-29T04:37:08.753Z,92.50
2019-03-29T04:39:38.239Z,92.60
2019-03-29T04:42:17.610Z,92.70
2019-03-29T04:44:47.056Z,92.30
2019-03-29T04:47:16.400Z,92.10
2019-03-29T04:49:42.867Z,91.80
2019-03-29T04:52:15.032Z,91.60
2019-03-29T04:54:44.566Z,91.50
2019-03-29T04:57:13.996Z,91.50
2019-03-29T04:59:43.340Z,91.50
2019-03-29T05:02:27.160Z,92.20
2019-03-29T05:04:55.467Z,92.40
2019-03-29T05:07:36.871Z,91.60
2019-03-29T05:10:22.019Z,91.50
2019-03-29T05:12:51.523Z,91.40
2019-03-29T05:15:31.002Z,92.20
2019-03-29T05:18:00.353Z,92.30
2019-03-29T05:23:55.304Z,92.40
2019-03-29T05:26:29.806Z,93.70
2019-03-29T05:29:02.233Z,94.00
2019-03-29T05:31:38.955Z,93.80
2019-03-29T05:34:20.385Z,93.40
2019-03-29T05:36:46.801Z,93.50
2019-03-29T05:39:26.432Z,93.80
2019-03-29T05:42:05.066Z,94.00
2019-03-29T05:44:34.542Z,93.70
2019-03-29T05:47:03.989Z,93.20
2019-03-29T05:49:49.003Z,93.10
2019-03-29T05:52:21.223Z,93.20
2019-03-29T05:54:53.696Z,92.30
2019-03-29T05:57:26.395Z,92.80
2019-03-29T06:00:06.292Z,93.00
2019-03-29T06:02:36.661Z,92.40
2019-03-29T06:05:06.155Z,92.20
2019-03-29T06:07:38.255Z,92.10
2019-03-29T06:10:04.987Z,91.50
2019-03-29T06:12:33.407Z,91.70
2019-03-29T06:15:03.673Z,91.10
2019-03-29T06:18:01.062Z,91.30
2019-03-29T06:20:30.687Z,91.30
2019-03-29T06:23:11.105Z,86.10
2019-03-29T06:25:48.724Z,81.00
2019-03-29T06:28:18.135Z,80.40
2019-03-29T06:30:47.632Z,74.00
2019-03-29T06:33:23.754Z,70.90
2019-03-29T06:36:05.490Z,67.40
2019-03-29T06:38:34.935Z,61.30
2019-03-29T06:41:04.465Z,58.40
2019-03-29T06:43:36.753Z,54.90
2019-03-29T06:46:03.005Z,54.90
2019-03-29T06:48:50.844Z,55.40
2019-03-29T06:51:27.099Z,56.10
2019-03-29T06:53:56.501Z,56.00
2019-03-29T06:56:28.924Z,53.60
2019-03-29T06:59:14.415Z,50.10
2019-03-29T07:01:47.623Z,53.60
2019-03-29T07:04:18.101Z,53.30
2019-03-29T07:06:57.100Z,53.10
2019-03-29T07:09:26.558Z,55.00
2019-03-29T07:11:55.966Z,54.90
2019-03-29T07:14:23.377Z,52.90
2019-03-29T07:16:50.692Z,57.50
2019-03-29T07:19:23.085Z,57.90
2019-03-29T07:21:52.420Z,58.30
2019-03-29T07:24:21.956Z,58.80
2019-03-29T07:26:51.386Z,54.90
2019-03-29T07:29:17.947Z,48.30
2019-03-29T07:31:47.291Z,45.70
2019-03-29T07:34:14.760Z,46.00
2019-03-29T07:36:44.237Z,45.00
2019-03-29T07:39:16.689Z,46.80
2019-03-29T07:41:43.013Z,45.50
2019-03-29T07:44:31.982Z,45.60
2019-03-29T07:46:58.288Z,47.10
2019-03-29T07:49:27.655Z,48.60
2019-03-29T07:52:12.569Z,52.10
2019-03-29T07:55:06.119Z,48.40
2019-03-29T07:58:07.513Z,48.40
2019-03-29T08:00:30.195Z,47.30
2019-03-29T08:03:00.896Z,49.10
2019-03-29T08:05:29.066Z,50.80
2019-03-29T08:08:00.556Z,52.00
2019-03-29T08:10:33.649Z,47.70
2019-03-29T08:13:03.237Z,45.10
2019-03-29T08:15:29.726Z,44.00
2019-03-29T08:18:21.131Z,42.50
2019-03-29T08:20:47.547Z,40.60
2019-03-29T08:23:19.669Z,47.30
2019-03-29T08:25:53.249Z,53.60
2019-03-29T08:28:25.865Z,51.70
2019-03-29T08:30:58.458Z,54.10
2019-03-29T08:33:30.892Z,50.20
2019-03-29T08:36:00.333Z,50.80
2019-03-29T08:38:32.715Z,50.60
2019-03-29T08:41:04.919Z,52.40
2019-03-29T08:43:58.238Z,50.90
2019-03-29T08:46:31.549Z,49.50
2019-03-29T08:49:08.829Z,49.20
2019-03-29T08:51:41.321Z,49.20
2019-03-29T08:54:09.857Z,46.60
2019-03-29T08:56:37.303Z,49.50
2019-03-29T08:59:06.300Z,46.80
2019-03-29T09:01:51.163Z,47.60
2019-03-29T09:04:27.206Z,46.10
2019-03-29T09:06:55.535Z,49.90
2019-03-29T09:09:41.987Z,49.20
2019-03-29T09:12:14.657Z,49.80
2019-03-29T09:14:58.970Z,49.80
2019-03-29T09:17:28.531Z,46.20
2019-03-29T09:19:56.959Z,49.10
2019-03-29T09:22:23.236Z,48.70
2019-03-29T09:24:49.612Z,47.40
2019-03-29T09:27:50.484Z,49.20
2019-03-29T09:30:24.227Z,49.30
2019-03-29T09:32:58.707Z,45.20
2019-03-29T09:35:31.109Z,41.20
2019-03-29T09:38:01.852Z,36.70
2019-03-29T09:40:31.246Z,34.20
2019-03-29T09:43:08.588Z,37.10
2019-03-29T09:45:37.178Z,38.80
2019-03-29T09:48:03.492Z,44.40
2019-03-29T09:50:33.616Z,46.60
2019-03-29T09:53:01.482Z,48.60
2019-03-29T09:55:28.036Z,49.00
2019-03-29T09:57:54.394Z,48.70
2019-03-29T10:00:23.362Z,48.70
2019-03-29T10:02:48.846Z,48.00
2019-03-29T10:05:15.254Z,51.70
2019-03-29T10:07:41.614Z,53.60
2019-03-29T10:10:07.947Z,52.90
2019-03-29T10:12:43.453Z,52.90
2019-03-29T10:15:02.850Z,54.20
2019-03-29T10:17:35.225Z,52.00
2019-03-29T10:20:02.165Z,50.70
2019-03-29T10:22:28.527Z,53.80
2019-03-29T10:24:57.915Z,56.60
2019-03-29T10:27:24.229Z,56.30
2019-03-29T10:29:50.557Z,57.10
2019-03-29T10:32:16.954Z,57.50
2019-03-29T10:34:43.251Z,57.10
2019-03-29T10:37:09.624Z,57.00
2019-03-29T10:39:36.077Z,56.50
2019-03-29T10:42:02.430Z,57.40
2019-03-29T10:44:28.746Z,57.60
2019-03-29T10:46:55.200Z,56.10
2019-03-29T10:49:21.687Z,55.40
2019-03-29T10:51:50.971Z,56.90
2019-03-29T10:54:18.278Z,56.80
2019-03-29T10:56:44.658Z,55.10
2019-03-29T10:59:26.756Z,54.90
2019-03-29T11:01:42.175Z,55.00
2019-03-29T11:04:08.579Z,53.60
2019-03-29T11:06:37.927Z,54.70
2019-03-29T11:09:06.715Z,53.90
2019-03-29T11:11:35.078Z,52.90
2019-03-29T11:14:01.803Z,54.90
2019-03-29T11:16:28.163Z,53.10
2019-03-29T11:18:54.408Z,51.80
2019-03-29T11:21:26.531Z,52.20
2019-03-29T11:23:52.966Z,51.30
2019-03-29T11:26:19.318Z,49.00
2019-03-29T11:28:48.636Z,49.90
2019-03-29T11:31:15.058Z,51.20
2019-03-29T11:33:41.443Z,51.00
2019-03-29T11:36:07.821Z,50.20
2019-03-29T11:38:40.158Z,50.50
2019-03-29T11:41:06.432Z,51.10
2019-03-29T11:43:34.941Z,51.10
2019-03-29T11:46:01.298Z,51.40
2019-03-29T11:48:29.549Z,50.10
2019-03-29T11:50:55.731Z,48.50
2019-03-29T11:53:22.000Z,48.40
2019-03-29T11:55:48.600Z,50.10
2019-03-29T11:58:14.953Z,48.50
2019-03-29T12:00:41.359Z,48.10
2019-03-29T12:03:09.343Z,48.70
2019-03-29T12:05:36.434Z,49.30
2019-03-29T12:08:03.437Z,49.30
2019-03-29T12:10:29.741Z,48.50
2019-03-29T12:12:56.091Z,49.30
2019-03-29T12:15:22.528Z,48.80
2019-03-29T12:17:48.822Z,49.90
2019-03-29T12:20:25.143Z,49.40
2019-03-29T12:22:51.867Z,49.80
2019-03-29T12:25:18.508Z,47.70
2019-03-29T12:27:44.887Z,48.20
2019-03-29T12:30:30.467Z,49.70
2019-03-29T12:32:45.298Z,50.20
2019-03-29T12:35:11.587Z,49.60
2019-03-29T12:37:37.972Z,50.00
2019-03-29T12:40:05.258Z,49.80
2019-03-29T12:42:31.746Z,49.90
2019-03-29T12:44:58.006Z,49.30
2019-03-29T12:47:24.412Z,49.00
2019-03-29T12:49:50.803Z,48.10
2019-03-29T12:52:17.134Z,46.80
2019-03-29T12:54:43.494Z,49.30
2019-03-29T12:57:09.913Z,48.50
2019-03-29T12:59:36.194Z,49.30
2019-03-29T13:02:02.565Z,49.70
2019-03-29T13:04:28.828Z,49.70
2019-03-29T13:06:55.124Z,50.80
2019-03-29T13:09:21.475Z,48.60
2019-03-29T13:11:47.786Z,50.20
2019-03-29T13:14:14.125Z,48.50
2019-03-29T13:16:40.478Z,49.00
2019-03-29T13:19:06.802Z,47.90
2019-03-29T13:21:33.436Z,49.20
2019-03-29T13:23:59.782Z,49.00
2019-03-29T13:26:26.058Z,48.10
2019-03-29T13:28:52.340Z,47.70
2019-03-29T13:31:18.668Z,48.20
2019-03-29T13:33:44.914Z,49.10
2019-03-29T13:36:11.459Z,50.10
2019-03-29T13:38:37.846Z,47.30
2019-03-29T13:41:06.892Z,48.00
2019-03-29T13:43:32.307Z,47.10
2019-03-29T13:45:59.754Z,47.40
2019-03-29T13:48:27.347Z,46.70
2019-03-29T13:50:54.642Z,47.50
2019-03-29T13:53:21.100Z,47.70
2019-03-29T13:55:47.376Z,46.80
2019-03-29T13:58:13.772Z,46.80
2019-03-29T14:00:40.296Z,46.70
2019-03-29T14:03:06.546Z,48.70
2019-03-29T14:05:32.899Z,48.70
2019-03-29T14:08:01.755Z,47.70
2019-03-29T14:10:28.669Z,48.70
2019-03-29T14:12:54.953Z,50.10
2019-03-29T14:15:21.238Z,48.30
2019-03-29T14:17:47.575Z,48.70
2019-03-29T14:20:17.782Z,48.50
2019-03-29T14:22:44.087Z,48.50
2019-03-29T14:25:10.362Z,49.00
2019-03-29T14:27:36.628Z,47.90
2019-03-29T14:30:05.493Z,48.40
2019-03-29T14:32:32.047Z,47.30
2019-03-29T14:34:58.436Z,47.30
2019-03-29T14:37:24.740Z,49.10
2019-03-29T14:39:51.203Z,48.40
2019-03-29T14:42:17.564Z,48.30
2019-03-29T14:44:52.882Z,47.50
2019-03-29T14:47:19.089Z,48.00
2019-03-29T14:49:45.361Z,49.40
2019-03-29T14:52:11.676Z,49.90
2019-03-29T14:54:38.097Z,47.30
2019-03-29T14:57:05.679Z,48.10
2019-03-29T14:59:32.065Z,47.60
2019-03-29T15:02:08.223Z,47.10
2019-03-29T15:04:34.798Z,47.70
2019-03-29T15:07:06.708Z,47.50
2019-03-29T15:09:33.692Z,48.40
2019-03-29T15:12:00.253Z,47.50
2019-03-29T15:14:27.994Z,46.80
2019-03-29T15:17:01.659Z,48.40
2019-03-29T15:19:28.611Z,48.30
2019-03-29T15:21:55.843Z,48.70
2019-03-29T15:24:22.611Z,49.20
2019-03-29T15:26:49.610Z,47.40
2019-03-29T15:29:24.273Z,47.80
2019-03-29T15:31:59.569Z,47.60
2019-03-29T15:34:26.518Z,47.20
2019-03-29T15:36:52.841Z,48.20
2019-03-29T15:39:21.130Z,48.00
2019-03-29T15:41:50.468Z,48.10
2019-03-29T15:44:27.230Z,47.60
2019-03-29T15:46:53.733Z,47.80
2019-03-29T15:49:20.133Z,48.40
2019-03-29T15:51:49.616Z,47.60
2019-03-29T15:54:16.072Z,47.60
2019-03-29T15:56:46.545Z,48.10
2019-03-29T15:59:13.433Z,47.10
2019-03-29T16:01:49.128Z,48.20
2019-03-29T16:04:26.772Z,47.50
2019-03-29T16:07:02.636Z,48.40
2019-03-29T16:09:29.134Z,48.00
2019-03-29T16:11:55.784Z,48.20
2019-03-29T16:14:22.254Z,48.50
2019-03-29T16:16:57.179Z,48.80
2019-03-29T16:19:23.547Z,49.00
2019-03-29T16:21:56.433Z,48.70
2019-03-29T16:24:23.466Z,49.60
2019-03-29T16:26:51.148Z,49.20
2019-03-29T16:29:18.218Z,49.70
2019-03-29T16:31:47.872Z,49.40
2019-03-29T16:34:14.976Z,50.20
2019-03-29T16:36:41.807Z,49.80
2019-03-29T16:39:10.302Z,50.10
2019-03-29T16:41:37.821Z,49.40
2019-03-29T16:44:04.882Z,50.30
2019-03-29T16:46:32.833Z,49.50
2019-03-29T16:49:00.133Z,48.70
2019-03-29T16:51:34.696Z,48.80
2019-03-29T16:54:05.666Z,47.90
2019-03-29T16:56:38.024Z,48.50
2019-03-29T16:59:05.277Z,48.00
2019-03-29T17:01:31.690Z,48.20
2019-03-29T17:04:04.148Z,49.00
2019-03-29T17:06:33.616Z,48.90
2019-03-29T17:09:00.166Z,49.20
2019-03-29T17:11:32.618Z,49.60
2019-03-29T17:13:59.017Z,50.10
2019-03-29T17:16:30.646Z,51.00
2019-03-29T17:18:53.450Z,51.30
2019-03-29T17:21:21.941Z,51.60
2019-03-29T17:23:52.706Z,51.80
2019-03-29T17:26:19.487Z,51.80
2019-03-29T17:28:46.460Z,51.90
2019-03-29T17:31:16.773Z,52.00
2019-03-29T17:33:43.111Z,52.30
2019-03-29T17:36:12.144Z,52.50
2019-03-29T17:38:38.923Z,52.40
2019-03-29T17:41:07.921Z,52.10
2019-03-29T17:43:34.672Z,52.40
2019-03-29T17:46:15.217Z,53.30
2019-03-29T17:48:31.279Z,53.20
2019-03-29T17:51:03.623Z,53.50
2019-03-29T17:53:29.843Z,54.40
2019-03-29T17:55:57.214Z,54.80
2019-03-29T17:58:23.511Z,55.20
2019-03-29T18:00:54.774Z,56.20
2019-03-29T18:03:25.903Z,56.40
2019-03-29T18:06:00.703Z,56.90
2019-03-29T18:08:28.690Z,57.80
2019-03-29T18:10:58.375Z,57.80
2019-03-29T18:13:27.507Z,58.00
2019-03-29T18:15:57.202Z,57.80
2019-03-29T18:18:23.659Z,58.10
2019-03-29T18:20:50.091Z,58.70
2019-03-29T18:23:16.447Z,58.70
2019-03-29T18:25:42.743Z,60.00
2019-03-29T18:28:10.048Z,60.80
2019-03-29T18:30:38.174Z,60.70
2019-03-29T18:33:05.131Z,61.20
2019-03-29T18:35:31.822Z,63.00
2019-03-29T18:37:58.191Z,64.60
2019-03-29T18:40:30.630Z,65.00
2019-03-29T18:42:57.276Z,66.00
2019-03-29T18:45:24.437Z,66.30
2019-03-29T18:47:52.645Z,65.80
2019-03-29T18:50:19.101Z,66.80
2019-03-29T18:52:45.479Z,66.40
2019-03-29T18:55:12.243Z,66.20
2019-03-29T18:57:38.550Z,66.80
2019-03-29T19:00:06.472Z,67.30
2019-03-29T19:02:45.035Z,66.50
2019-03-29T19:05:23.105Z,66.70
2019-03-29T19:07:50.476Z,65.90
2019-03-29T19:10:26.759Z,66.40
2019-03-29T19:12:55.375Z,66.60
2019-03-29T19:15:21.674Z,67.30
2019-03-29T19:17:47.904Z,67.70
2019-03-29T19:20:26.736Z,67.30
2019-03-29T19:22:43.319Z,67.40
2019-03-29T19:25:09.641Z,66.80
2019-03-29T19:27:35.884Z,67.90
2019-03-29T19:30:09.290Z,67.20
2019-03-29T19:32:41.646Z,67.60
2019-03-29T19:35:11.133Z,68.20
2019-03-29T19:37:37.431Z,68.90
2019-03-29T19:40:04.982Z,69.10
2019-03-29T19:42:31.790Z,69.30
2019-03-29T19:44:58.076Z,69.60
2019-03-29T19:47:24.441Z,68.70
2019-03-29T19:49:55.306Z,70.00
2019-03-29T19:52:21.001Z,72.00
2019-03-29T19:54:47.385Z,73.00
2019-03-29T19:57:16.695Z,73.70
2019-03-29T19:59:48.180Z,74.20
2019-03-29T20:02:14.412Z,73.90
2019-03-29T20:04:40.719Z,73.10
2019-03-29T20:07:07.193Z,72.90
2019-03-29T20:09:33.477Z,74.30
2019-03-29T20:11:59.791Z,74.50
2019-03-29T20:14:26.666Z,73.50
2019-03-29T20:16:55.228Z,72.70
2019-03-29T20:19:21.059Z,72.50
2019-03-29T20:21:47.436Z,72.20
2019-03-29T20:24:13.798Z,73.40
2019-03-29T20:26:40.080Z,72.40
2019-03-29T20:29:09.381Z,72.10
2019-03-29T20:31:35.688Z,72.30
2019-03-29T20:34:01.982Z,72.90
2019-03-29T20:36:28.282Z,73.40
2019-03-29T20:38:54.591Z,72.80
2019-03-29T20:41:20.863Z,72.70
2019-03-29T20:43:47.441Z,73.20
2019-03-29T20:46:16.981Z,72.80
2019-03-29T20:48:43.380Z,74.00
2019-03-29T20:51:09.891Z,75.30
2019-03-29T20:53:36.341Z,76.70
2019-03-29T20:56:02.694Z,77.60
2019-03-29T20:58:29.090Z,77.50
2019-03-29T21:00:55.401Z,77.70
2019-03-29T21:03:21.663Z,78.40
2019-03-29T21:05:47.931Z,78.20
2019-03-29T21:08:14.526Z,78.60
2019-03-29T21:10:54.551Z,77.90
2019-03-29T21:13:09.003Z,77.60
2019-03-29T21:15:35.361Z,77.60
2019-03-29T21:18:01.703Z,77.10
2019-03-29T21:20:28.155Z,77.60
2019-03-29T21:22:54.485Z,79.70
2019-03-29T21:25:24.972Z,81.50
2019-03-29T21:27:51.303Z,81.40
2019-03-29T21:30:17.681Z,81.10
2019-03-29T21:32:45.914Z,81.50
2019-03-29T21:35:12.383Z,81.10
2019-03-29T21:37:38.790Z,80.60
2019-03-29T21:40:05.945Z,79.90
2019-03-29T21:42:32.239Z,79.80
2019-03-29T21:44:58.543Z,79.50
2019-03-29T21:47:24.834Z,80.20
2019-03-29T21:49:51.537Z,80.00
2019-03-29T21:52:17.806Z,80.00
2019-03-29T21:54:44.109Z,79.60
2019-03-29T21:57:10.369Z,81.30
2019-03-29T21:59:39.325Z,83.00
2019-03-29T22:02:05.619Z,85.20
2019-03-29T22:04:31.911Z,87.10
2019-03-29T22:07:01.386Z,88.30
2019-03-29T22:09:36.864Z,89.20
2019-03-29T22:11:55.810Z,87.80
2019-03-29T22:14:22.106Z,87.60
2019-03-29T22:16:48.368Z,87.50
2019-03-29T22:19:15.646Z,88.50
2019-03-29T22:21:42.055Z,89.30
2019-03-29T22:24:11.318Z,90.00
2019-03-29T22:26:37.654Z,90.30
2019-03-29T22:29:03.965Z,90.20
2019-03-29T22:31:30.343Z,90.00
2019-03-29T22:33:56.734Z,89.90
2019-03-29T22:36:23.016Z,90.20
2019-03-29T22:38:49.290Z,90.70
2019-03-29T22:41:15.639Z,90.70
2019-03-29T22:43:41.954Z,90.70
2019-03-29T22:46:08.214Z,91.30
2019-03-29T22:48:34.740Z,91.20
2019-03-29T22:51:01.049Z,91.20
2019-03-29T22:53:33.146Z,91.60
2019-03-29T22:55:59.478Z,91.40
2019-03-29T22:58:29.270Z,91.00
2019-03-29T23:00:55.777Z,91.40
2019-03-29T23:03:22.328Z,91.20
2019-03-29T23:05:48.574Z,90.70
2019-03-29T23:08:15.993Z,90.80
2019-03-29T23:10:42.500Z,90.80
2019-03-29T23:13:09.003Z,90.30
2019-03-29T23:15:35.282Z,90.50
2019-03-29T23:18:01.702Z,90.60
2019-03-29T23:20:28.210Z,91.30
2019-03-29T23:22:54.557Z,91.30
2019-03-29T23:25:20.956Z,91.70
2019-03-29T23:27:47.254Z,91.80
2019-03-29T23:30:13.616Z,91.90
2019-03-29T23:32:48.784Z,91.80
2019-03-29T23:35:15.186Z,91.90
2019-03-29T23:37:41.508Z,92.90
2019-03-29T23:40:07.796Z,93.20
2019-03-29T23:42:34.078Z,93.00
2019-03-29T23:45:00.342Z,92.60
2019-03-29T23:47:29.609Z,91.90
2019-03-29T23:49:55.999Z,92.20
2019-03-29T23:52:22.375Z,92.20
2019-03-29T23:54:48.688Z,92.10
2019-03-29T23:57:15.010Z,91.60
2019-03-29T23:59:41.308Z,91.50
